Terminal Aerodrome Forecast
Issued by NWS Flagstaff, AZ

Current Version | Previous Version | Text Only | Print | Product List | Glossary On
Versions: 1 2 3 4 5 6 7 8 9 10 11 12
000
FTUS45 KFGZ 241700
TAFFLG
TAF
KFLG 241732Z 2418/2518 35012G20KT P6SM SKC
     FM241930 03014G26KT P6SM SKC
     FM242330 05015G28KT P6SM SKC
     FM250800 06012G20KT P6SM SKC=

USA.gov is the U.S. government's official web portal to all federal, state and local government web resources and services.